الصفحة الرئيسية
METAR-TAF:

METAR-TAF

مطار :

ييكاتيرينبرغ, روسيا

دائرة عرض: 56-50N, خط طول: 060-38E, ارتفاع: 237 متر

مراقبة الطقس الحالي

تاريخ ووقت الإصدار 37 دقيقة قبل الساعة 07:30UTC
ريح 10 عقدة من الجنوب
درجة الحرارة 17°درجة مئوية
الرطوبة 39%
ضغط 1031 hPa
الرؤية 10 كم أو أكثر
الغيوم لا تقل 1500 م ولا وجود لمزنة ركامية السحاب الأسود

METAR: USSS 110730Z 17005MPS CAVOK 17/03 Q1031 R26L/110060 NOSIG RMK QFE752/1003

زمن: 13:07 (08:07 UTC)

توقعات

تاريخ ووقت الإصدار 3ساعات و 11 دقيقة قبل الساعة 04:56UTC
التوقعات صالحة من11 الساعة 06 UTC إلى 12 الساعة 06 UTC
ريح 6 عقدة من الجنوب تتزايد حتى 23 عقدة
الرؤية 10 كم أو أكثر
غيوم متفرقة على ارتفاع 2000 قدم
أصبح
من 11 الساعة 14 UTC إلى 11 الساعة 16 UTC
ريح 6 عقدة من الغرب/الجنوب الغربي تتزايد حتى 25 عقدة
غيوم مفككة على ارتفاع 1600 قدم
أصبح
من 11 الساعة 21 UTC إلى 11 الساعة 23 UTC
ريح 6 عقدة من الغرب/الشمال الغربي تتزايد حتى 19 عقدة
الرؤية: 6000 متر
مطر خفيف

TAF: USSS 110456Z 1106/1206 17003G12MPS 9999 SCT020 BECMG 1114/1116 24003G13MPS BKN016 BECMG 1121/1123 30003G10MPS 6000 -RA

أرصاد الطقس والتوقعات من أكثر من 4000 مطار (تقارير الطقس للمطار METAR والتنبؤ بالطقس بالمطارTAF).

المحطات المتاحة هي النقط الصفراء والحمراء على الخريطة.

حرك المؤشر فوق النقطة لمعرفة اسم المحطة.

ثم انقر لمعرفة أرصاد وتوقعات الطقس.

لتغيير الخارطة: اضغط على الأزرار الخضراء مع رمز الصليب الأسود للتكبير. على الزر الأخضر مع شرطة للتصغير، أو على الأسهم الخضراء للخرائط المجاورة.


METAR-TAF: